createdAt,value
2019-03-03T00:01:27.827Z,5.67
2019-03-03T00:04:36.220Z,5.43
2019-03-03T00:07:44.124Z,5.70
2019-03-03T00:10:53.628Z,5.13
2019-03-03T00:14:04.057Z,5.20
2019-03-03T00:17:11.487Z,5.30
2019-03-03T00:20:22.276Z,4.57
2019-03-03T00:23:33.989Z,4.97
2019-03-03T00:26:42.902Z,4.73
2019-03-03T00:29:52.668Z,4.90
2019-03-03T00:32:59.859Z,4.87
2019-03-03T00:36:07.356Z,5.17
2019-03-03T00:39:35.921Z,4.30
2019-03-03T00:43:06.903Z,4.30
2019-03-03T00:46:44.025Z,4.80
2019-03-03T00:50:19.037Z,4.30
2019-03-03T00:53:49.643Z,3.80
2019-03-03T00:57:05.673Z,4.07
2019-03-03T01:00:37.823Z,4.00
2019-03-03T01:04:02.041Z,3.13
2019-03-03T01:07:20.586Z,3.80
2019-03-03T01:10:35.060Z,4.13
2019-03-03T01:14:03.828Z,4.77
2019-03-03T01:17:22.120Z,3.50
2019-03-03T01:20:47.977Z,3.70
2019-03-03T01:24:19.405Z,3.60
2019-03-03T01:27:26.560Z,3.33
2019-03-03T01:30:33.327Z,3.87
2019-03-03T01:33:39.743Z,3.00
2019-03-03T01:36:46.472Z,3.90
2019-03-03T01:39:52.982Z,3.50
2019-03-03T01:42:59.302Z,3.30
2019-03-03T01:46:06.280Z,3.90
2019-03-03T01:49:13.010Z,3.90
2019-03-03T01:52:19.726Z,3.90
2019-03-03T01:55:26.256Z,3.67
2019-03-03T01:58:33.216Z,3.60
2019-03-03T02:01:39.761Z,4.13
2019-03-03T02:04:46.654Z,3.67
2019-03-03T02:07:53.327Z,4.30
2019-03-03T02:10:59.743Z,3.43
2019-03-03T02:14:06.184Z,3.47
2019-03-03T02:17:12.534Z,3.30
2019-03-03T02:20:18.869Z,3.60
2019-03-03T02:23:26.015Z,3.37
2019-03-03T02:26:32.328Z,3.80
2019-03-03T02:29:39.602Z,3.20
2019-03-03T02:32:45.726Z,2.90
2019-03-03T02:35:52.383Z,2.80
2019-03-03T02:38:58.885Z,3.40
2019-03-03T02:42:05.514Z,3.60
2019-03-03T02:45:12.800Z,3.37
2019-03-03T02:48:20.070Z,3.83
2019-03-03T02:51:27.217Z,3.30
2019-03-03T02:54:33.891Z,3.70
2019-03-03T02:57:40.892Z,3.47
2019-03-03T03:01:02.707Z,3.10
2019-03-03T03:04:09.712Z,3.80
2019-03-03T03:09:27.429Z,3.57
2019-03-03T03:12:51.786Z,3.60
2019-03-03T03:16:04.165Z,3.20
2019-03-03T03:19:32.366Z,3.40
2019-03-03T03:22:57.427Z,4.43
2019-03-03T03:26:21.425Z,3.50
2019-03-03T03:29:47.619Z,3.53
2019-03-03T03:33:14.511Z,3.87
2019-03-03T03:36:30.694Z,3.87
2019-03-03T03:39:49.842Z,3.03
2019-03-03T03:43:14.999Z,3.77
2019-03-03T03:46:49.772Z,3.40
2019-03-03T03:50:30.315Z,3.53
2019-03-03T03:54:04.485Z,3.23
2019-03-03T03:57:27.049Z,3.40
2019-03-03T04:01:04.408Z,3.60
2019-03-03T04:04:28.462Z,3.57
2019-03-03T04:07:53.858Z,3.87
2019-03-03T04:11:12.550Z,4.40
2019-03-03T04:14:32.387Z,4.30
2019-03-03T04:18:04.539Z,4.70
2019-03-03T04:21:39.193Z,4.60
2019-03-03T04:25:05.647Z,4.60
2019-03-03T04:28:36.541Z,4.60
2019-03-03T04:31:59.604Z,4.00
2019-03-03T04:35:25.378Z,5.07
2019-03-03T04:38:57.029Z,5.40
2019-03-03T04:42:15.828Z,4.70
2019-03-03T04:45:28.240Z,4.60
2019-03-03T04:48:53.718Z,4.83
2019-03-03T04:52:19.335Z,5.23
2019-03-03T04:55:47.885Z,5.50
2019-03-03T04:59:25.422Z,5.60
2019-03-03T05:02:41.876Z,5.10
2019-03-03T05:06:03.807Z,4.40
2019-03-03T05:09:35.891Z,4.70
2019-03-03T05:12:56.814Z,4.90
2019-03-03T05:16:27.022Z,4.80
2019-03-03T05:19:52.708Z,4.83
2019-03-03T05:22:59.033Z,4.83
2019-03-03T05:26:05.884Z,4.60
2019-03-03T05:29:12.299Z,4.00
2019-03-03T05:32:18.384Z,4.70
2019-03-03T05:35:25.135Z,4.37
2019-03-03T05:38:31.980Z,4.33
2019-03-03T05:41:38.726Z,4.10
2019-03-03T05:44:45.110Z,3.60
2019-03-03T05:47:51.465Z,4.10
2019-03-03T05:50:58.576Z,3.43
2019-03-03T05:54:05.302Z,4.20
2019-03-03T05:57:12.073Z,3.50
2019-03-03T06:00:19.342Z,3.40
2019-03-03T06:03:25.729Z,3.70
2019-03-03T06:06:32.290Z,3.80
2019-03-03T06:09:38.727Z,4.27
2019-03-03T06:12:45.314Z,3.93
2019-03-03T06:15:52.109Z,3.77
2019-03-03T06:18:58.739Z,5.20
2019-03-03T06:22:05.743Z,4.83
2019-03-03T06:25:12.463Z,4.07
2019-03-03T06:28:19.272Z,4.73
2019-03-03T06:31:26.770Z,5.40
2019-03-03T06:34:33.654Z,4.20
2019-03-03T06:37:40.119Z,3.70
2019-03-03T06:40:46.750Z,4.17
2019-03-03T06:43:53.222Z,3.67
2019-03-03T06:46:59.679Z,3.87
2019-03-03T06:50:07.378Z,4.23
2019-03-03T06:53:13.895Z,4.73
2019-03-03T06:56:20.355Z,3.73
2019-03-03T06:59:26.813Z,3.00
2019-03-03T07:02:33.390Z,3.40
2019-03-03T07:05:40.732Z,3.40
2019-03-03T07:08:47.149Z,4.00
2019-03-03T07:11:53.681Z,3.57
2019-03-03T07:15:00.347Z,3.40
2019-03-03T07:18:06.930Z,4.00
2019-03-03T07:21:13.345Z,3.30
2019-03-03T07:24:19.777Z,2.90
2019-03-03T07:27:26.935Z,3.30
2019-03-03T07:30:33.597Z,3.23
2019-03-03T07:33:43.787Z,3.10
2019-03-03T07:36:50.137Z,3.20
2019-03-03T07:39:56.884Z,3.80
2019-03-03T07:43:04.019Z,3.10
2019-03-03T07:46:10.537Z,3.77
2019-03-03T07:49:17.630Z,3.53
2019-03-03T07:52:24.553Z,4.03
2019-03-03T07:55:31.341Z,3.30
2019-03-03T07:58:38.259Z,3.13
2019-03-03T08:01:45.830Z,3.53
2019-03-03T08:04:52.701Z,3.10
2019-03-03T08:07:59.372Z,3.20
2019-03-03T08:11:05.990Z,3.30
2019-03-03T08:14:12.950Z,3.30
2019-03-03T08:17:19.258Z,3.57
2019-03-03T08:20:25.909Z,3.20
2019-03-03T08:23:36.262Z,3.33
2019-03-03T08:26:43.527Z,3.00
2019-03-03T08:29:50.296Z,3.57
2019-03-03T08:32:57.345Z,4.03
2019-03-03T08:36:04.198Z,4.00
2019-03-03T08:39:11.796Z,5.20
2019-03-03T08:42:49.675Z,3.57
2019-03-03T08:46:13.864Z,3.00
2019-03-03T08:49:45.532Z,3.30
2019-03-03T08:53:15.264Z,2.97
2019-03-03T08:56:42.763Z,3.50
2019-03-03T09:00:14.713Z,3.80
2019-03-03T09:03:38.871Z,2.90
2019-03-03T09:07:16.413Z,3.37
2019-03-03T09:10:30.152Z,3.20
2019-03-03T09:13:47.821Z,2.90
2019-03-03T09:17:19.416Z,2.87
2019-03-03T09:20:51.355Z,3.40
2019-03-03T09:24:17.264Z,3.17
2019-03-03T09:27:41.487Z,3.87
2019-03-03T09:31:16.424Z,3.43
2019-03-03T09:34:41.177Z,3.20
2019-03-03T09:38:15.981Z,3.10
2019-03-03T09:41:45.274Z,3.43
2019-03-03T09:45:10.020Z,3.20
2019-03-03T09:48:34.093Z,2.70
2019-03-03T09:51:54.237Z,3.37
2019-03-03T09:55:26.128Z,3.20
2019-03-03T09:58:50.520Z,3.37
2019-03-03T10:02:14.416Z,2.97
2019-03-03T10:05:50.222Z,2.83
2019-03-03T10:09:15.775Z,3.30
2019-03-03T10:12:32.840Z,3.50
2019-03-03T10:16:06.113Z,3.60
2019-03-03T10:19:22.219Z,4.40
2019-03-03T10:22:42.208Z,3.40
2019-03-03T10:26:07.993Z,4.13
2019-03-03T10:29:37.027Z,3.27
2019-03-03T10:33:16.763Z,3.23
2019-03-03T10:36:42.691Z,4.23
2019-03-03T10:39:58.447Z,3.37
2019-03-03T10:43:44.529Z,3.13
2019-03-03T10:47:13.293Z,3.40
2019-03-03T10:50:38.998Z,3.17
2019-03-03T10:54:10.996Z,3.00
2019-03-03T10:57:39.496Z,3.00
2019-03-03T11:01:18.187Z,3.40
2019-03-03T11:04:42.734Z,3.37
2019-03-03T11:08:11.206Z,3.00
2019-03-03T11:11:37.385Z,3.40
2019-03-03T11:15:06.373Z,3.37
2019-03-03T11:18:32.471Z,3.00
2019-03-03T11:22:07.909Z,2.70
2019-03-03T11:25:23.639Z,2.70
2019-03-03T11:29:07.671Z,7.30
2019-03-03T11:32:42.821Z,3.73
2019-03-03T11:36:11.686Z,3.03
2019-03-03T11:39:39.597Z,2.50
2019-03-03T11:42:53.952Z,3.13
2019-03-03T11:46:11.287Z,2.90
2019-03-03T11:49:32.502Z,3.63
2019-03-03T11:53:04.281Z,2.53
2019-03-03T11:56:28.585Z,2.93
2019-03-03T11:59:46.785Z,2.80
2019-03-03T12:03:08.904Z,2.80
2019-03-03T12:06:26.312Z,2.90
2019-03-03T12:10:00.842Z,3.03
2019-03-03T12:13:15.689Z,3.40
2019-03-03T12:16:48.440Z,3.83
2019-03-03T12:20:08.842Z,3.40
2019-03-03T12:23:49.687Z,3.53
2019-03-03T12:27:15.360Z,2.37
2019-03-03T12:30:34.373Z,3.00
2019-03-03T12:33:48.006Z,3.13
2019-03-03T12:37:13.698Z,3.10
2019-03-03T12:40:42.174Z,2.30
2019-03-03T12:44:10.240Z,2.97
2019-03-03T12:47:35.513Z,3.10
2019-03-03T12:50:55.229Z,2.87
2019-03-03T12:54:23.294Z,3.27
2019-03-03T12:57:51.987Z,2.70
2019-03-03T13:01:17.967Z,2.80
2019-03-03T13:04:39.092Z,3.00
2019-03-03T13:08:21.600Z,2.53
2019-03-03T13:11:39.913Z,2.77
2019-03-03T13:15:14.936Z,2.93
2019-03-03T13:18:32.021Z,2.50
2019-03-03T13:21:46.592Z,4.30
2019-03-03T13:25:21.691Z,5.00
2019-03-03T13:28:34.261Z,3.20
2019-03-03T13:32:09.566Z,3.83
2019-03-03T13:35:37.832Z,4.17
2019-03-03T13:38:52.063Z,2.90
2019-03-03T13:42:09.605Z,4.40
2019-03-03T13:45:16.433Z,3.67
2019-03-03T13:48:23.361Z,3.37
2019-03-03T13:51:30.127Z,2.70
2019-03-03T13:54:38.076Z,3.10
2019-03-03T13:57:45.181Z,2.53
2019-03-03T14:00:53.019Z,2.37
2019-03-03T14:04:01.289Z,2.37
2019-03-03T14:07:08.233Z,3.10
2019-03-03T14:10:16.081Z,3.00
2019-03-03T14:13:24.376Z,2.70
2019-03-03T14:16:30.918Z,2.90
2019-03-03T14:19:38.675Z,2.80
2019-03-03T14:22:45.788Z,2.73
2019-03-03T14:25:55.511Z,3.33
2019-03-03T14:29:02.687Z,2.57
2019-03-03T14:32:09.617Z,2.93
2019-03-03T14:35:17.916Z,2.60
2019-03-03T14:38:26.088Z,2.53
2019-03-03T14:41:33.295Z,3.10
2019-03-03T14:44:39.745Z,2.73
2019-03-03T14:47:48.258Z,2.80
2019-03-03T14:50:55.285Z,3.73
2019-03-03T14:54:02.211Z,3.37
2019-03-03T14:57:09.340Z,3.43
2019-03-03T15:00:27.291Z,3.37
2019-03-03T15:03:34.379Z,3.40
2019-03-03T15:06:41.582Z,3.40
2019-03-03T15:09:48.540Z,2.63
2019-03-03T15:12:58.003Z,2.60
2019-03-03T15:16:04.296Z,2.67
2019-03-03T15:19:10.930Z,2.60
2019-03-03T15:22:17.770Z,2.37
2019-03-03T15:25:25.222Z,3.20
2019-03-03T15:28:31.679Z,3.30
2019-03-03T15:31:39.425Z,2.63
2019-03-03T15:34:46.450Z,2.67
2019-03-03T15:37:53.538Z,2.47
2019-03-03T15:41:00.363Z,2.50
2019-03-03T15:44:07.029Z,2.53
2019-03-03T15:47:13.915Z,3.53
2019-03-03T15:50:21.067Z,3.20
2019-03-03T15:53:27.706Z,2.83
2019-03-03T15:56:34.862Z,3.27
2019-03-03T15:59:41.964Z,2.67
2019-03-03T16:02:48.946Z,3.40
2019-03-03T16:05:58.061Z,2.93
2019-03-03T16:09:12.086Z,2.27
2019-03-03T16:12:19.320Z,2.80
2019-03-03T16:15:28.002Z,2.80
2019-03-03T16:18:38.861Z,1.80
2019-03-03T16:21:47.183Z,2.93
2019-03-03T16:24:56.264Z,2.00
2019-03-03T16:28:03.800Z,1.83
2019-03-03T16:31:10.738Z,2.90
2019-03-03T16:34:17.717Z,2.87
2019-03-03T16:37:26.790Z,2.40
2019-03-03T16:40:39.505Z,2.77
2019-03-03T16:43:42.807Z,2.63
2019-03-03T16:46:50.070Z,2.50
2019-03-03T16:49:58.974Z,4.97
2019-03-03T16:53:05.894Z,2.40
2019-03-03T16:56:14.107Z,2.50
2019-03-03T16:59:21.218Z,2.70
2019-03-03T17:02:27.947Z,2.53
2019-03-03T17:05:35.379Z,2.80
2019-03-03T17:08:41.893Z,2.37
2019-03-03T17:11:48.358Z,2.30
2019-03-03T17:14:55.500Z,2.00
2019-03-03T17:18:03.081Z,2.40
2019-03-03T17:21:10.252Z,3.03
2019-03-03T17:24:17.137Z,2.70
2019-03-03T17:27:25.121Z,2.47
2019-03-03T17:30:31.899Z,2.97
2019-03-03T17:33:38.858Z,2.50
2019-03-03T17:36:46.066Z,2.60
2019-03-03T17:39:52.974Z,2.80
2019-03-03T17:42:59.840Z,2.33
2019-03-03T17:46:07.644Z,2.20
2019-03-03T17:49:15.228Z,1.90
2019-03-03T17:52:24.096Z,2.87
2019-03-03T17:55:31.607Z,3.07
2019-03-03T17:58:38.816Z,2.20
2019-03-03T18:01:46.879Z,3.77
2019-03-03T18:04:53.740Z,2.20
2019-03-03T18:08:01.090Z,4.10
2019-03-03T18:11:08.175Z,2.93
2019-03-03T18:14:15.012Z,3.53
2019-03-03T18:17:22.531Z,2.50
2019-03-03T18:20:47.947Z,2.37
2019-03-03T18:24:12.611Z,3.23
2019-03-03T18:27:36.959Z,3.33
2019-03-03T18:34:46.337Z,1.83
2019-03-03T18:38:10.951Z,2.20
2019-03-03T18:41:36.385Z,2.30
2019-03-03T18:45:01.788Z,2.10
2019-03-03T18:48:27.628Z,3.07
2019-03-03T18:51:53.214Z,2.27
2019-03-03T18:55:17.994Z,2.47
2019-03-03T18:58:42.911Z,2.10
2019-03-03T19:02:08.818Z,2.83
2019-03-03T19:05:33.648Z,2.80
2019-03-03T19:09:02.235Z,2.20
2019-03-03T19:12:32.038Z,2.20
2019-03-03T19:15:57.260Z,2.07
2019-03-03T19:19:21.992Z,2.10
2019-03-03T19:22:46.779Z,3.33
2019-03-03T19:26:11.318Z,2.53
2019-03-03T19:29:35.665Z,2.60
2019-03-03T19:33:04.164Z,3.07
2019-03-03T19:36:29.961Z,2.30
2019-03-03T19:39:54.262Z,3.10
2019-03-03T19:43:19.275Z,2.50
2019-03-03T19:46:44.114Z,2.10
2019-03-03T19:50:10.213Z,2.43
2019-03-03T19:53:35.042Z,2.80
2019-03-03T19:56:59.785Z,2.40
2019-03-03T20:00:35.057Z,2.00
2019-03-03T20:03:54.942Z,3.10
2019-03-03T20:07:19.858Z,2.73
2019-03-03T20:10:44.544Z,2.40
2019-03-03T20:14:09.821Z,2.20
2019-03-03T20:17:34.732Z,3.27
2019-03-03T20:21:00.296Z,2.20
2019-03-03T20:24:24.568Z,2.47
2019-03-03T20:27:49.309Z,2.70
2019-03-03T20:31:17.084Z,2.27
2019-03-03T20:34:41.634Z,2.20
2019-03-03T20:38:06.592Z,2.70
2019-03-03T20:41:31.445Z,2.37
2019-03-03T20:44:56.139Z,2.23
2019-03-03T20:48:23.327Z,2.60
2019-03-03T20:51:49.520Z,2.03
2019-03-03T20:55:14.895Z,2.50
2019-03-03T20:58:39.935Z,2.20
2019-03-03T21:02:04.434Z,2.47
2019-03-03T21:05:29.497Z,2.80
2019-03-03T21:08:54.391Z,2.60
2019-03-03T21:12:19.426Z,2.13
2019-03-03T21:15:43.950Z,3.40
2019-03-03T21:19:08.841Z,3.20
2019-03-03T21:22:33.286Z,2.57
2019-03-03T21:25:57.880Z,2.43
2019-03-03T21:29:22.788Z,2.83
2019-03-03T21:32:47.740Z,2.70
2019-03-03T21:36:12.623Z,2.20
2019-03-03T21:39:37.774Z,2.33
2019-03-03T21:43:02.320Z,3.03
2019-03-03T21:46:27.205Z,2.40
2019-03-03T21:49:53.343Z,2.97
2019-03-03T21:53:17.781Z,2.47
2019-03-03T21:56:43.099Z,2.73
2019-03-03T22:00:20.430Z,2.50
2019-03-03T22:03:45.264Z,2.27
2019-03-03T22:07:10.755Z,2.60
2019-03-03T22:10:35.647Z,2.10
2019-03-03T22:14:00.869Z,2.83
2019-03-03T22:17:25.450Z,2.27
2019-03-03T22:20:50.413Z,2.37
2019-03-03T22:24:14.962Z,2.77
2019-03-03T22:27:39.930Z,3.33
2019-03-03T22:31:04.352Z,3.20
2019-03-03T22:34:29.243Z,2.70
2019-03-03T22:37:56.863Z,3.03
2019-03-03T22:41:21.582Z,2.70
2019-03-03T22:44:45.894Z,3.00
2019-03-03T22:48:10.603Z,3.00
2019-03-03T22:51:36.514Z,2.50
2019-03-03T22:55:00.567Z,2.63
2019-03-03T22:58:26.448Z,3.03
2019-03-03T23:01:51.155Z,2.40
2019-03-03T23:05:35.396Z,2.97
2019-03-03T23:09:22.847Z,3.00
2019-03-03T23:13:15.760Z,2.47
2019-03-03T23:17:24.620Z,2.47
2019-03-03T23:21:24.541Z,2.70
2019-03-03T23:25:29.928Z,3.20
2019-03-03T23:28:54.679Z,3.13
2019-03-03T23:32:19.424Z,3.30
2019-03-03T23:35:43.764Z,2.90
2019-03-03T23:39:09.374Z,2.70
2019-03-03T23:42:34.194Z,2.80
2019-03-03T23:45:58.701Z,2.73
2019-03-03T23:49:23.172Z,2.53
2019-03-03T23:52:47.236Z,3.10
2019-03-03T23:56:11.429Z,2.80
2019-03-03T23:59:35.763Z,3.00
